Mountain Green, Utah
Current Conditions -  °F | °C
As of 9:58 PM on Tuesday 21 Oct 2014 (Local Time) from KHIF Reporting Station
Clear Clear  
Wind Chill: 46°   Ceiling: Unl
Heat Index: 48°   Visibility: 10mi
Dew Point: 32°   Wind: 6mph
Humidity: 52%   Direction: 330°NNW
Pressure: 30.08"   Gusts: NA
Location:  41.0884°N, 111.576°W
Report Text: KHIF 220358Z AUTO 33005KT 10SM CLR 09/00 A3008 RMK AO2 SLP154 T00911002
Loading
Personal Weather Stations






























Interactive Weather Map
Tropical Storm Tracking
New forecast layout! Learn more

10-Day Weather Forecast

Advertisements
Track Severe Weather on mobile